Aérodrome :
LOGIN :

S'inscrire | Disclaimer

   EN    FR    IT 

 










Légende :    VFR   VFR Marginal   IFR   IFR Intensif   IFR Très Intensif
Visi : 
Plafond : 
>= 8 km
>= 3000ft
5 à 8 km
1000 à 3000 ft
1500m à 5 km
500 à 1000 ft
800 à 1500m
200 à 500 ft
< 800m
< 200 ft
Symboles :   Orages  Brouillard  Fortes neiges  Fortes précipitations  Vent > 20 kt
SIGMETs :   Divers  Orages  Givrage  Turbulence  Onde Orograph.  Cendres Volcan.







- Altitude de l'aérodrome : 238 ft
- Code IATA : FAB
- Voir les cartes d'approche


EGLF - Farnborough

DERNIER METAR :
  • 210950Z VRB02KT 9000 OVC007 17/17 Q1021

METARs EXPIRÉS :
  • 210920Z VRB01KT 9000 OVC006 16/16 Q1021
  • 210850Z VRB02KT 9999 OVC005 16/16 Q1021
  • 210820Z 08003KT 4000 BR OVC003 16/16 Q1021
  • 210750Z VRB02KT 2500 BR OVC003 15/15 Q1021
  • 210720Z 08003KT 2500 BR OVC003 14/14 Q1021

TAF AMD TAF EGLF
Valide du 21 à 09h jusqu'au 21 à 18h UTC


210925Z 2109/2118 VRB04KT 9000 BKN005
BECMG 2110/2113 9999 BKN010
PROB30 2112/2118 SCT012
ATIS : +44 09063 800 400 (*282)
Pas de NOTAMs connus pour ce terrain.



MET'MAP, la Météo Aéronautique d'un coup d'oeil ! - Copyright ORBIFLY Décembre 2007 - Disclaimer

ORBIFLY MET'MAP TEAM :

Programmation & Développement : Alexandra Zaïnal
Conception & Développement : Baudouin d'Aumeries
Co-Programmation & Développement : Marc-Olivier Méhu
Soutien technique & logistique : Manuel Goepfert

Contact : metmap@orbifly.com




SOURCES & CREDITS :

   NOAA